createdAt,value
2023-04-21T00:00:35.449Z,76.12
2023-04-21T00:02:39.608Z,75.81
2023-04-21T00:04:45.484Z,75.52
2023-04-21T00:06:48.249Z,75.50
2023-04-21T00:08:51.205Z,74.71
2023-04-21T00:10:55.331Z,74.64
2023-04-21T00:12:57.876Z,74.97
2023-04-21T00:15:00.621Z,75.24
2023-04-21T00:17:03.179Z,75.33
2023-04-21T00:19:07.040Z,75.36
2023-04-21T00:21:09.610Z,75.34
2023-04-21T00:23:12.266Z,75.50
2023-04-21T00:25:15.483Z,75.47
2023-04-21T00:27:19.990Z,75.27
2023-04-21T00:29:22.529Z,75.47
2023-04-21T00:31:25.254Z,75.50
2023-04-21T00:33:27.917Z,75.39
2023-04-21T00:35:30.831Z,75.51
2023-04-21T00:37:33.414Z,75.42
2023-04-21T00:39:35.931Z,75.25
2023-04-21T00:41:39.869Z,74.97
2023-04-21T00:44:05.599Z,75.20
2023-04-21T00:46:08.152Z,75.02
2023-04-21T00:48:12.043Z,75.12
2023-04-21T00:50:14.617Z,75.08
2023-04-21T00:52:18.874Z,75.05
2023-04-21T00:54:22.084Z,74.80
2023-04-21T00:56:25.410Z,74.81
2023-04-21T00:58:28.138Z,74.54
2023-04-21T01:00:32.107Z,74.53
2023-04-21T01:02:37.277Z,74.46
2023-04-21T01:04:40.252Z,74.29
2023-04-21T01:06:43.160Z,74.32
2023-04-21T01:08:47.348Z,74.10
2023-04-21T01:10:49.882Z,74.02
2023-04-21T01:12:52.455Z,74.17
2023-04-21T01:14:55.033Z,74.06
2023-04-21T01:16:59.349Z,74.06
2023-04-21T01:19:04.496Z,73.89
2023-04-21T01:21:07.503Z,73.39
2023-04-21T01:23:11.451Z,73.79
2023-04-21T01:25:14.064Z,73.88
2023-04-21T01:27:19.132Z,73.86
2023-04-21T01:29:21.692Z,73.96
2023-04-21T01:31:24.276Z,73.82
2023-04-21T01:33:26.987Z,74.03
2023-04-21T01:35:29.595Z,74.28
2023-04-21T01:37:33.743Z,74.15
2023-04-21T01:39:39.997Z,74.15
2023-04-21T01:41:42.546Z,73.63
2023-04-21T01:43:45.151Z,73.62
2023-04-21T01:45:49.209Z,73.22
2023-04-21T01:47:51.792Z,72.74
2023-04-21T01:49:54.606Z,72.84
2023-04-21T01:51:57.133Z,72.90
2023-04-21T01:53:59.660Z,73.04
2023-04-21T01:56:03.628Z,73.29
2023-04-21T01:58:06.221Z,73.33
2023-04-21T02:00:10.220Z,73.34
2023-04-21T02:02:13.012Z,73.72
2023-04-21T02:04:15.675Z,73.22
2023-04-21T02:06:18.735Z,73.14
2023-04-21T02:08:21.272Z,73.04
2023-04-21T02:10:24.030Z,72.64
2023-04-21T02:12:27.897Z,72.59
2023-04-21T02:14:30.478Z,71.45
2023-04-21T02:16:33.062Z,71.76
2023-04-21T02:18:39.849Z,71.97
2023-04-21T02:20:42.417Z,72.00
2023-04-21T02:22:45.163Z,71.72
2023-04-21T02:24:47.784Z,71.86
2023-04-21T02:26:50.370Z,71.97
2023-04-21T02:28:54.295Z,72.38
2023-04-21T02:30:56.868Z,73.09
2023-04-21T02:32:59.468Z,73.49
2023-04-21T02:35:02.076Z,73.73
2023-04-21T02:37:04.869Z,73.70
2023-04-21T02:39:07.573Z,73.72
2023-04-21T02:41:10.375Z,73.72
2023-04-21T02:43:14.610Z,74.00
2023-04-21T02:45:18.715Z,73.94
2023-04-21T02:47:21.382Z,73.89
2023-04-21T02:49:23.977Z,73.01
2023-04-21T02:51:26.818Z,72.81
2023-04-21T02:53:29.381Z,73.04
2023-04-21T02:55:32.132Z,73.27
2023-04-21T02:57:34.732Z,73.41
2023-04-21T02:59:37.300Z,73.77
2023-04-21T03:01:41.166Z,73.84
2023-04-21T03:03:43.827Z,74.21
2023-04-21T03:05:46.449Z,74.17
2023-04-21T03:07:49.040Z,74.55
2023-04-21T03:09:51.618Z,74.82
2023-04-21T03:11:54.156Z,74.79
2023-04-21T03:13:56.690Z,74.82
2023-04-21T03:15:59.289Z,74.38
2023-04-21T03:18:03.200Z,74.82
2023-04-21T03:20:08.132Z,73.68
2023-04-21T03:22:10.684Z,74.34
2023-04-21T03:24:13.397Z,74.54
2023-04-21T03:26:18.684Z,74.91
2023-04-21T03:28:21.228Z,75.07
2023-04-21T03:30:25.663Z,74.96
2023-04-21T03:32:28.350Z,75.04
2023-04-21T03:34:32.318Z,75.09
2023-04-21T03:36:37.190Z,75.32
2023-04-21T03:38:39.702Z,74.93
2023-04-21T03:40:42.291Z,75.25
2023-04-21T03:42:45.053Z,75.28
2023-04-21T03:44:47.571Z,74.41
2023-04-21T03:46:50.166Z,73.60
2023-04-21T03:48:52.723Z,74.19
2023-04-21T03:50:56.755Z,74.95
2023-04-21T03:52:59.313Z,75.05
2023-04-21T03:55:01.823Z,75.30
2023-04-21T03:57:04.361Z,75.20
2023-04-21T03:59:07.119Z,75.47
2023-04-21T04:01:09.630Z,75.55
2023-04-21T04:03:12.349Z,75.73
2023-04-21T04:05:14.992Z,76.08
2023-04-21T04:07:19.031Z,75.90
2023-04-21T04:09:21.711Z,76.15
2023-04-21T04:11:24.357Z,76.09
2023-04-21T04:13:27.613Z,76.26
2023-04-21T04:15:30.221Z,76.32
2023-04-21T04:17:32.820Z,76.22
2023-04-21T04:19:35.347Z,76.06
2023-04-21T04:21:38.160Z,76.15
2023-04-21T04:23:42.569Z,76.05
2023-04-21T04:25:45.456Z,75.91
2023-04-21T04:27:49.419Z,75.73
2023-04-21T04:29:51.968Z,75.58
2023-04-21T04:31:54.716Z,75.37
2023-04-21T04:33:57.339Z,75.60
2023-04-21T04:35:59.889Z,75.59
2023-04-21T04:38:02.409Z,75.50
2023-04-21T04:40:09.992Z,75.65
2023-04-21T04:42:12.601Z,75.56
2023-04-21T04:44:16.226Z,75.74
2023-04-21T04:46:20.556Z,75.73
2023-04-21T04:48:24.363Z,75.89
2023-04-21T04:50:27.053Z,75.45
2023-04-21T04:52:29.595Z,75.62
2023-04-21T04:54:32.132Z,74.60
2023-04-21T04:56:36.586Z,75.90
2023-04-21T04:58:39.202Z,76.28
2023-04-21T05:00:41.796Z,76.57
2023-04-21T05:02:44.610Z,76.93
2023-04-21T05:04:47.450Z,76.92
2023-04-21T05:06:50.119Z,77.10
2023-04-21T05:08:52.684Z,77.01
2023-04-21T05:10:55.215Z,76.96
2023-04-21T05:12:59.052Z,76.96
2023-04-21T05:15:01.585Z,77.03
2023-04-21T05:17:04.276Z,77.11
2023-04-21T05:19:07.041Z,76.71
2023-04-21T05:21:09.579Z,76.63
2023-04-21T05:23:12.119Z,76.86
2023-04-21T05:25:15.813Z,77.07
2023-04-21T05:27:18.446Z,77.50
2023-04-21T05:29:22.333Z,77.52
2023-04-21T05:31:25.304Z,77.60
2023-04-21T05:33:27.851Z,77.69
2023-04-21T05:35:31.481Z,77.70
2023-04-21T05:37:34.081Z,77.85
2023-04-21T05:39:36.599Z,78.16
2023-04-21T05:41:39.136Z,78.22
2023-04-21T05:43:41.657Z,78.31
2023-04-21T05:45:45.532Z,78.47
2023-04-21T05:47:48.094Z,78.45
2023-04-21T05:49:53.644Z,78.45
2023-04-21T05:51:56.284Z,78.71
2023-04-21T05:53:58.907Z,79.08
2023-04-21T05:56:01.446Z,79.07
2023-04-21T05:58:04.202Z,79.22
2023-04-21T06:00:08.538Z,78.09
2023-04-21T06:02:12.671Z,76.57
2023-04-21T06:04:15.864Z,77.65
2023-04-21T06:06:18.765Z,78.35
2023-04-21T06:08:21.335Z,78.50
2023-04-21T06:10:23.895Z,78.65
2023-04-21T06:12:26.447Z,79.08
2023-04-21T06:14:29.153Z,79.14
2023-04-21T06:16:34.124Z,79.39
2023-04-21T06:18:38.083Z,79.46
2023-04-21T06:20:41.446Z,79.59
2023-04-21T06:22:43.976Z,79.60
2023-04-21T06:24:46.499Z,79.57
2023-04-21T06:26:49.036Z,79.71
2023-04-21T06:28:51.746Z,79.42
2023-04-21T06:30:54.256Z,79.41
2023-04-21T06:32:56.814Z,79.39
2023-04-21T06:35:00.699Z,79.41
2023-04-21T06:37:03.319Z,79.23
2023-04-21T06:39:05.841Z,79.23
2023-04-21T06:41:08.360Z,78.88
2023-04-21T06:43:10.928Z,78.43
2023-04-21T06:45:13.523Z,78.32
2023-04-21T06:47:16.712Z,78.54
2023-04-21T06:49:19.674Z,77.74
2023-04-21T06:51:23.817Z,77.82
2023-04-21T06:53:26.458Z,77.67
2023-04-21T06:55:29.102Z,77.92
2023-04-21T06:57:31.644Z,78.41
2023-04-21T06:59:34.887Z,77.28
2023-04-21T07:01:37.445Z,78.05
2023-04-21T07:05:42.794Z,78.08
2023-04-21T07:07:46.688Z,78.28
2023-04-21T07:09:49.304Z,76.67
2023-04-21T07:11:51.853Z,77.62
2023-04-21T07:13:54.366Z,77.48
2023-04-21T07:15:57.257Z,78.00
2023-04-21T07:17:59.889Z,78.77
2023-04-21T07:20:02.546Z,79.11
2023-04-21T07:22:05.089Z,79.54
2023-04-21T07:24:09.823Z,79.23
2023-04-21T07:26:12.408Z,77.49
2023-04-21T07:28:16.076Z,78.26
2023-04-21T07:30:18.644Z,78.18
2023-04-21T07:32:21.212Z,78.38
2023-04-21T07:34:23.868Z,78.06
2023-04-21T07:36:28.906Z,78.72
2023-04-21T07:38:34.688Z,78.33
2023-04-21T07:40:38.729Z,78.98
2023-04-21T07:42:41.332Z,79.51
2023-04-21T07:44:45.620Z,79.65
2023-04-21T07:46:48.207Z,80.12
2023-04-21T07:48:50.935Z,80.38
2023-04-21T07:50:53.533Z,80.49
2023-04-21T07:52:56.091Z,80.50
2023-04-21T07:54:58.620Z,80.36
2023-04-21T07:57:02.688Z,80.39
2023-04-21T07:59:05.221Z,80.57
2023-04-21T08:01:07.885Z,80.29
2023-04-21T08:03:10.643Z,80.47
2023-04-21T08:05:13.410Z,80.36
2023-04-21T08:07:18.983Z,80.32
2023-04-21T08:09:21.919Z,80.17
2023-04-21T08:11:24.680Z,79.96
2023-04-21T08:13:28.643Z,79.39
2023-04-21T08:15:31.208Z,79.45
2023-04-21T08:17:33.958Z,79.47
2023-04-21T08:19:36.650Z,78.44
2023-04-21T08:21:41.070Z,78.07
2023-04-21T08:23:43.595Z,77.89
2023-04-21T08:25:46.168Z,78.22
2023-04-21T08:27:48.790Z,78.56
2023-04-21T08:29:52.730Z,78.96
2023-04-21T08:31:55.417Z,78.91
2023-04-21T08:34:01.858Z,79.37
2023-04-21T08:36:12.180Z,79.62
2023-04-21T08:38:20.903Z,79.69
2023-04-21T08:40:33.140Z,79.70
2023-04-21T08:42:36.883Z,79.96
2023-04-21T08:44:41.475Z,80.09
2023-04-21T08:46:46.548Z,80.21
2023-04-21T08:48:49.166Z,79.60
2023-04-21T08:50:52.226Z,79.80
2023-04-21T08:52:55.534Z,80.29
2023-04-21T08:54:58.439Z,80.64
2023-04-21T08:57:14.100Z,80.97
2023-04-21T08:59:18.387Z,81.00
2023-04-21T09:01:21.457Z,81.35
2023-04-21T09:03:26.731Z,80.88
2023-04-21T09:05:31.632Z,81.15
2023-04-21T09:07:36.231Z,80.20
2023-04-21T09:09:54.702Z,80.39
2023-04-21T09:11:58.358Z,80.32
2023-04-21T09:14:01.112Z,80.19
2023-04-21T09:16:08.229Z,80.10
2023-04-21T09:18:15.563Z,79.01
2023-04-21T09:20:21.470Z,79.27
2023-04-21T09:22:29.366Z,78.77
2023-04-21T09:24:35.097Z,79.04
2023-04-21T09:26:37.757Z,79.29
2023-04-21T09:28:43.809Z,79.17
2023-04-21T09:30:46.530Z,78.66
2023-04-21T09:32:49.082Z,78.98
2023-04-21T09:34:51.705Z,79.30
2023-04-21T09:37:02.465Z,78.88
2023-04-21T09:41:11.566Z,79.26
2023-04-21T09:43:14.103Z,79.13
2023-04-21T09:45:32.812Z,79.21
2023-04-21T09:47:42.564Z,79.08
2023-04-21T09:49:46.151Z,79.22
2023-04-21T09:52:17.128Z,78.90
2023-04-21T09:56:25.433Z,79.79
2023-04-21T09:58:34.469Z,79.37
2023-04-21T10:00:39.763Z,79.55
2023-04-21T10:02:45.233Z,79.83
2023-04-21T10:04:48.280Z,78.91
2023-04-21T10:06:52.213Z,78.91
2023-04-21T10:08:58.023Z,78.91
2023-04-21T10:11:03.024Z,79.37
2023-04-21T10:13:05.778Z,79.45
2023-04-21T10:15:35.490Z,79.67
2023-04-21T10:17:38.379Z,79.46
2023-04-21T10:19:50.707Z,79.38
2023-04-21T10:21:56.069Z,79.71
2023-04-21T10:23:59.151Z,80.04
2023-04-21T10:26:07.741Z,79.89
2023-04-21T10:28:10.567Z,79.73
2023-04-21T10:30:20.790Z,80.46
2023-04-21T10:32:41.339Z,80.44
2023-04-21T10:34:44.956Z,80.10
2023-04-21T10:37:06.302Z,80.24
2023-04-21T10:39:09.003Z,80.79
2023-04-21T10:41:30.129Z,80.83
2023-04-21T10:43:45.172Z,80.96
2023-04-21T10:45:50.524Z,80.85
2023-04-21T10:47:54.840Z,80.65
2023-04-21T10:49:58.322Z,81.12
2023-04-21T10:52:05.486Z,81.04
2023-04-21T10:54:08.113Z,80.95
2023-04-21T10:56:10.881Z,80.80
2023-04-21T10:58:16.650Z,80.91
2023-04-21T11:00:22.369Z,81.26
2023-04-21T11:02:25.220Z,80.79
2023-04-21T11:04:29.777Z,80.43
2023-04-21T11:06:32.828Z,80.76
2023-04-21T11:08:37.134Z,80.66
2023-04-21T11:10:53.764Z,80.44
2023-04-21T11:12:58.544Z,80.73
2023-04-21T11:15:08.411Z,80.69
2023-04-21T11:17:13.274Z,80.64
2023-04-21T11:19:16.415Z,80.70
2023-04-21T11:21:21.881Z,80.39
2023-04-21T11:23:24.432Z,80.44
2023-04-21T11:25:27.497Z,80.48
2023-04-21T11:27:30.752Z,80.27
2023-04-21T11:29:34.258Z,79.76
2023-04-21T11:31:37.845Z,79.68
2023-04-21T11:33:40.584Z,79.87
2023-04-21T11:35:43.209Z,79.75
2023-04-21T11:37:47.120Z,79.70
2023-04-21T11:39:49.652Z,79.85
2023-04-21T11:41:53.004Z,79.90
2023-04-21T11:43:55.567Z,79.93
2023-04-21T11:46:12.480Z,79.55
2023-04-21T11:48:16.257Z,79.93
2023-04-21T11:50:32.157Z,80.08
2023-04-21T11:52:37.301Z,79.63
2023-04-21T11:54:44.199Z,79.63
2023-04-21T11:56:48.472Z,79.41
2023-04-21T11:58:52.601Z,79.44
2023-04-21T12:00:55.298Z,79.22
2023-04-21T12:02:58.470Z,78.90
2023-04-21T12:05:03.020Z,78.43
2023-04-21T12:07:05.952Z,78.78
2023-04-21T12:09:08.535Z,78.99
2023-04-21T12:11:12.428Z,78.84
2023-04-21T12:13:20.060Z,78.63
2023-04-21T12:15:23.704Z,78.31
2023-04-21T12:17:26.335Z,78.31
2023-04-21T12:19:37.240Z,77.88
2023-04-21T12:21:40.463Z,77.86
2023-04-21T12:23:44.639Z,78.07
2023-04-21T12:25:47.563Z,77.60
2023-04-21T12:27:52.460Z,77.76
2023-04-21T12:29:55.203Z,77.90
2023-04-21T12:31:57.842Z,77.64
2023-04-21T12:34:00.528Z,77.01
2023-04-21T12:36:03.508Z,76.83
2023-04-21T12:38:06.173Z,76.78
2023-04-21T12:40:09.723Z,76.25
2023-04-21T12:42:12.325Z,75.70
2023-04-21T12:44:16.325Z,74.54
2023-04-21T12:46:19.042Z,73.52
2023-04-21T12:48:21.640Z,72.42
2023-04-21T12:50:24.171Z,71.94
2023-04-21T12:52:27.060Z,71.82
2023-04-21T12:54:29.587Z,71.25
2023-04-21T12:56:32.281Z,70.69
2023-04-21T12:58:34.830Z,70.00
2023-04-21T13:00:38.737Z,69.83
2023-04-21T13:02:41.425Z,69.18
2023-04-21T13:04:44.261Z,67.87
2023-04-21T13:06:46.844Z,66.79
2023-04-21T13:08:49.488Z,66.29
2023-04-21T13:10:53.989Z,65.47
2023-04-21T13:12:57.642Z,64.58
2023-04-21T13:15:00.271Z,63.75
2023-04-21T13:17:04.219Z,62.57
2023-04-21T13:19:06.774Z,61.90
2023-04-21T13:21:09.323Z,61.74
2023-04-21T13:23:14.138Z,58.98
2023-04-21T13:25:17.739Z,59.40
2023-04-21T13:27:20.578Z,59.15
2023-04-21T13:29:23.129Z,58.57
2023-04-21T13:31:26.303Z,57.13
2023-04-21T13:33:30.512Z,56.10
2023-04-21T13:35:33.069Z,55.47
2023-04-21T13:37:35.776Z,55.02
2023-04-21T13:39:38.372Z,53.97
2023-04-21T13:41:40.911Z,53.11
2023-04-21T13:43:43.801Z,52.58
2023-04-21T13:45:48.082Z,51.69
2023-04-21T13:47:51.844Z,51.17
2023-04-21T13:49:58.628Z,49.75
2023-04-21T13:52:01.154Z,49.66
2023-04-21T13:54:03.800Z,48.63
2023-04-21T13:56:06.706Z,48.85
2023-04-21T13:58:09.816Z,48.37
2023-04-21T14:00:13.255Z,48.17
2023-04-21T14:02:16.239Z,48.21
2023-04-21T14:04:21.007Z,48.01
2023-04-21T14:06:25.082Z,46.98
2023-04-21T14:08:27.635Z,47.35
2023-04-21T14:10:30.180Z,46.50
2023-04-21T14:12:32.746Z,45.16
2023-04-21T14:14:38.802Z,45.70
2023-04-21T14:16:41.949Z,45.33
2023-04-21T14:18:46.417Z,45.04
2023-04-21T14:20:48.977Z,45.30
2023-04-21T14:22:52.844Z,44.51
2023-04-21T14:24:55.398Z,44.10
2023-04-21T14:26:57.937Z,44.61
2023-04-21T14:29:01.470Z,45.01
2023-04-21T14:31:04.329Z,46.29
2023-04-21T14:33:07.197Z,47.17
2023-04-21T14:35:10.391Z,48.19
2023-04-21T14:37:13.006Z,48.91
2023-04-21T14:39:16.925Z,50.32
2023-04-21T14:41:19.439Z,50.43
2023-04-21T14:43:22.035Z,50.65
2023-04-21T14:45:24.786Z,51.09
2023-04-21T14:47:27.499Z,50.67
2023-04-21T14:49:30.238Z,47.87
2023-04-21T14:51:32.899Z,46.94
2023-04-21T14:53:35.592Z,45.35
2023-04-21T14:55:41.666Z,45.91
2023-04-21T14:57:44.663Z,46.25
2023-04-21T14:59:47.221Z,46.62
2023-04-21T15:01:49.834Z,45.53
2023-04-21T15:03:52.681Z,44.84
2023-04-21T15:05:55.586Z,44.55
2023-04-21T15:07:58.124Z,44.43
2023-04-21T15:10:00.948Z,45.08
2023-04-21T15:12:05.609Z,45.67
2023-04-21T15:14:08.263Z,46.08
2023-04-21T15:16:10.843Z,45.69
2023-04-21T15:18:13.469Z,45.15
2023-04-21T15:20:16.068Z,42.90
2023-04-21T15:22:18.851Z,43.83
2023-04-21T15:24:21.410Z,44.19
2023-04-21T15:26:24.384Z,43.28
2023-04-21T15:28:28.316Z,43.18
2023-04-21T15:30:30.944Z,42.73
2023-04-21T15:32:33.554Z,42.46
2023-04-21T15:34:36.428Z,41.26
2023-04-21T15:36:38.966Z,41.66
2023-04-21T15:38:41.618Z,41.88
2023-04-21T15:40:59.059Z,42.19
2023-04-21T15:43:02.974Z,42.69
2023-04-21T15:45:08.323Z,43.25
2023-04-21T15:47:10.879Z,44.32
2023-04-21T15:49:13.462Z,43.17
2023-04-21T15:51:16.114Z,44.04
2023-04-21T15:53:20.086Z,44.66
2023-04-21T15:55:23.297Z,44.91
2023-04-21T15:57:28.264Z,44.91
2023-04-21T15:59:30.912Z,45.20
2023-04-21T16:01:34.967Z,45.57
2023-04-21T16:03:40.008Z,45.45
2023-04-21T16:05:43.269Z,45.74
2023-04-21T16:07:45.973Z,45.65
2023-04-21T16:09:48.551Z,43.70
2023-04-21T16:11:51.438Z,43.48
2023-04-21T16:13:54.267Z,43.58
2023-04-21T16:15:57.055Z,43.22
2023-04-21T16:18:02.249Z,43.38
2023-04-21T16:20:05.975Z,43.66
2023-04-21T16:22:09.373Z,44.61
2023-04-21T16:24:12.217Z,44.55
2023-04-21T16:26:14.887Z,45.39
2023-04-21T16:28:17.467Z,46.15
2023-04-21T16:30:20.076Z,47.00
2023-04-21T16:32:22.744Z,47.31
2023-04-21T16:34:26.750Z,47.89
2023-04-21T16:36:31.145Z,48.25
2023-04-21T16:38:33.795Z,49.08
2023-04-21T16:40:36.543Z,49.15
2023-04-21T16:42:39.310Z,49.95
2023-04-21T16:44:41.920Z,50.57
2023-04-21T16:46:44.522Z,51.15
2023-04-21T16:48:47.500Z,51.36
2023-04-21T16:50:53.742Z,51.89
2023-04-21T16:52:56.320Z,51.87
2023-04-21T16:54:59.156Z,52.18
2023-04-21T16:57:02.030Z,52.54
2023-04-21T16:59:04.772Z,52.99
2023-04-21T17:01:08.202Z,52.81
2023-04-21T17:03:10.922Z,52.96
2023-04-21T17:05:15.606Z,52.74
2023-04-21T17:07:19.602Z,52.72
2023-04-21T17:09:22.153Z,53.06
2023-04-21T17:11:24.692Z,53.33
2023-04-21T17:13:27.253Z,53.70
2023-04-21T17:15:29.830Z,53.60
2023-04-21T17:17:41.210Z,54.06
2023-04-21T17:19:43.980Z,54.50
2023-04-21T17:21:46.528Z,54.64
2023-04-21T17:23:51.114Z,54.82
2023-04-21T17:25:53.750Z,54.80
2023-04-21T17:27:56.611Z,53.98
2023-04-21T17:29:59.240Z,54.00
2023-04-21T17:32:01.870Z,54.26
2023-04-21T17:34:04.452Z,53.64
2023-04-21T17:36:08.066Z,53.18
2023-04-21T17:38:10.655Z,47.58
2023-04-21T17:40:15.272Z,47.57
2023-04-21T17:42:17.787Z,46.69
2023-04-21T17:44:20.746Z,45.94
2023-04-21T17:46:25.436Z,44.27
2023-04-21T17:48:28.278Z,43.71
2023-04-21T17:50:31.200Z,43.41
2023-04-21T17:52:33.706Z,44.07
2023-04-21T17:54:38.786Z,44.81
2023-04-21T17:56:43.048Z,45.07
2023-04-21T17:58:45.762Z,43.65
2023-04-21T18:00:48.470Z,43.93
2023-04-21T18:02:51.233Z,43.12
2023-04-21T18:04:54.126Z,43.66
2023-04-21T18:06:56.928Z,43.35
2023-04-21T18:08:59.528Z,43.81
2023-04-21T18:11:03.795Z,44.88
2023-04-21T18:13:07.830Z,45.15
2023-04-21T18:15:11.596Z,45.54
2023-04-21T18:17:16.014Z,45.84
2023-04-21T18:19:20.257Z,46.53
2023-04-21T18:21:22.857Z,46.29
2023-04-21T18:23:25.416Z,46.79
2023-04-21T18:27:36.889Z,47.94
2023-04-21T18:29:40.791Z,48.21
2023-04-21T18:31:43.447Z,47.96
2023-04-21T18:33:45.983Z,47.85
2023-04-21T18:35:48.521Z,48.10
2023-04-21T18:37:51.504Z,48.16
2023-04-21T18:39:54.192Z,48.38
2023-04-21T18:41:56.741Z,48.33
2023-04-21T18:43:59.317Z,47.96
2023-04-21T18:46:03.252Z,48.14
2023-04-21T18:48:06.402Z,48.92
2023-04-21T18:50:10.140Z,49.91
2023-04-21T18:52:13.102Z,50.78
2023-04-21T18:54:16.233Z,51.40
2023-04-21T18:56:18.797Z,51.38
2023-04-21T18:58:21.635Z,51.68
2023-04-21T19:00:24.190Z,52.18
2023-04-21T19:02:30.050Z,52.54
2023-04-21T19:04:32.914Z,52.93
2023-04-21T19:06:35.662Z,53.04
2023-04-21T19:08:42.540Z,52.91
2023-04-21T19:10:46.039Z,52.54
2023-04-21T19:12:48.702Z,52.57
2023-04-21T19:14:52.415Z,52.61
2023-04-21T19:16:56.263Z,52.69
2023-04-21T19:19:00.953Z,52.99
2023-04-21T19:21:04.439Z,53.09
2023-04-21T19:23:07.040Z,53.91
2023-04-21T19:25:11.973Z,54.33
2023-04-21T19:27:15.199Z,54.84
2023-04-21T19:29:17.794Z,55.06
2023-04-21T19:31:21.526Z,55.20
2023-04-21T19:33:24.267Z,54.81
2023-04-21T19:35:28.544Z,55.65
2023-04-21T19:37:34.452Z,56.33
2023-04-21T19:39:37.754Z,56.52
2023-04-21T19:41:40.292Z,56.20
2023-04-21T19:43:42.842Z,56.85
2023-04-21T19:45:46.119Z,56.31
2023-04-21T19:47:48.750Z,56.63
2023-04-21T19:49:51.422Z,56.89
2023-04-21T19:51:56.016Z,56.99
2023-04-21T19:54:07.892Z,57.25
2023-04-21T19:56:14.270Z,57.01
2023-04-21T19:58:25.201Z,57.09
2023-04-21T20:00:39.505Z,56.77
2023-04-21T20:02:42.380Z,56.70
2023-04-21T20:04:45.442Z,56.20
2023-04-21T20:06:48.128Z,56.27
2023-04-21T20:08:52.189Z,56.42
2023-04-21T20:10:54.723Z,57.16
2023-04-21T20:12:57.278Z,57.48
2023-04-21T20:15:00.180Z,57.74
2023-04-21T20:17:02.844Z,58.11
2023-04-21T20:19:06.195Z,58.46
2023-04-21T20:21:08.712Z,58.71
2023-04-21T20:23:12.188Z,59.05
2023-04-21T20:25:16.426Z,59.44
2023-04-21T20:27:19.478Z,59.91
2023-04-21T20:29:22.202Z,59.84
2023-04-21T20:31:25.474Z,59.80
2023-04-21T20:33:28.326Z,60.27
2023-04-21T20:35:33.390Z,60.26
2023-04-21T20:37:35.997Z,60.23
2023-04-21T20:39:39.366Z,60.43
2023-04-21T20:41:45.624Z,60.60
2023-04-21T20:43:48.692Z,60.65
2023-04-21T20:45:51.308Z,60.78
2023-04-21T20:47:53.961Z,60.66
2023-04-21T20:49:57.497Z,60.36
2023-04-21T20:52:01.315Z,61.10
2023-04-21T20:54:03.924Z,61.39
2023-04-21T20:56:06.719Z,61.32
2023-04-21T20:58:10.661Z,62.01
2023-04-21T21:00:14.181Z,62.46
2023-04-21T21:02:16.797Z,62.25
2023-04-21T21:04:19.612Z,62.56
2023-04-21T21:06:22.341Z,62.95
2023-04-21T21:08:24.969Z,63.19
2023-04-21T21:10:28.119Z,63.43
2023-04-21T21:12:30.642Z,63.62
2023-04-21T21:14:34.583Z,63.80
2023-04-21T21:16:37.485Z,63.83
2023-04-21T21:18:40.053Z,63.90
2023-04-21T21:20:42.850Z,64.04
2023-04-21T21:22:45.385Z,64.21
2023-04-21T21:24:50.295Z,64.19
2023-04-21T21:26:52.934Z,64.27
2023-04-21T21:28:55.513Z,64.29
2023-04-21T21:30:59.410Z,64.34
2023-04-21T21:33:02.003Z,64.53
2023-04-21T21:35:05.020Z,64.61
2023-04-21T21:37:07.586Z,64.55
2023-04-21T21:39:11.442Z,64.14
2023-04-21T21:41:14.678Z,64.37
2023-04-21T21:43:17.273Z,64.24
2023-04-21T21:45:19.791Z,64.91
2023-04-21T21:47:23.846Z,65.27
2023-04-21T21:49:26.675Z,65.24
2023-04-21T21:51:29.774Z,65.73
2023-04-21T21:53:32.494Z,65.78
2023-04-21T21:55:35.137Z,66.19
2023-04-21T21:57:37.806Z,66.23
2023-04-21T21:59:40.647Z,66.66
2023-04-21T22:01:43.396Z,67.12
2023-04-21T22:03:48.040Z,67.30
2023-04-21T22:05:50.643Z,67.22
2023-04-21T22:07:53.747Z,67.56
2023-04-21T22:09:59.610Z,68.23
2023-04-21T22:12:02.169Z,68.23
2023-04-21T22:14:14.728Z,68.30
2023-04-21T22:16:24.964Z,68.42
2023-04-21T22:18:27.854Z,68.25
2023-04-21T22:20:32.138Z,68.39
2023-04-21T22:22:34.851Z,68.37
2023-04-21T22:24:37.389Z,68.77
2023-04-21T22:26:39.936Z,69.02
2023-04-21T22:28:43.488Z,69.02
2023-04-21T22:30:46.129Z,68.99
2023-04-21T22:32:48.794Z,68.98
2023-04-21T22:34:51.359Z,69.26
2023-04-21T22:36:55.541Z,69.33
2023-04-21T22:38:58.059Z,68.87
2023-04-21T22:41:00.682Z,68.99
2023-04-21T22:43:03.700Z,69.37
2023-04-21T22:45:07.084Z,69.57
2023-04-21T22:47:10.702Z,69.87
2023-04-21T22:49:14.204Z,69.92
2023-04-21T22:51:18.471Z,70.00
2023-04-21T22:53:22.374Z,70.16
2023-04-21T22:55:25.539Z,70.32
2023-04-21T22:57:28.359Z,70.38
2023-04-21T22:59:31.263Z,70.40
2023-04-21T23:01:34.435Z,70.02
2023-04-21T23:03:37.080Z,70.24
2023-04-21T23:05:39.929Z,70.21
2023-04-21T23:07:42.481Z,70.30
2023-04-21T23:09:46.358Z,70.24
2023-04-21T23:11:48.962Z,70.44
2023-04-21T23:13:51.514Z,69.89
2023-04-21T23:15:54.043Z,70.00
2023-04-21T23:17:56.654Z,70.21
2023-04-21T23:20:00.027Z,70.21
2023-04-21T23:22:02.576Z,70.20
2023-04-21T23:24:05.443Z,70.36
2023-04-21T23:26:09.295Z,70.40
2023-04-21T23:28:11.951Z,70.58
2023-04-21T23:30:15.131Z,70.52
2023-04-21T23:32:17.810Z,70.32
2023-04-21T23:34:20.413Z,70.51
2023-04-21T23:36:22.916Z,70.27
2023-04-21T23:38:25.606Z,70.14
2023-04-21T23:40:28.270Z,70.06
2023-04-21T23:42:32.223Z,70.24
2023-04-21T23:44:37.204Z,70.31
2023-04-21T23:46:39.811Z,70.46
2023-04-21T23:48:42.414Z,70.55
2023-04-21T23:50:45.043Z,70.42
2023-04-21T23:52:48.957Z,70.36
2023-04-21T23:54:51.669Z,70.05
2023-04-21T23:56:54.210Z,69.73
2023-04-21T23:59:00.251Z,69.12
